Time;durP1;ratioP1;P1;durP2;ratioP2;P2;SDS_P1;SDS_P2;PMS_P1;PMS_P2;Temp;Humidity;BMP_temperature;BMP_pressure;BME280_temperature;BME280_humidity;BME280_pressure;Samples;Min_cycle;Max_cycle;Signal;HPM_P1;HPM_P2
2023/07/05 00:01:13;;;;;;;11.77;5.82;;;16.90;99.90;;;;;;5089754;28;20047;-85
2023/07/05 00:03:40;;;;;;;11.48;5.80;;;16.90;99.90;;;;;;5073470;28;20036;-85
2023/07/05 00:06:06;;;;;;;11.93;4.95;;;16.90;99.90;;;;;;5090220;28;20451;-85
2023/07/05 00:08:33;;;;;;;14.40;6.32;;;16.90;99.90;;;;;;5090185;28;20048;-85
2023/07/05 00:11:03;;;;;;;13.45;5.97;;;16.90;99.90;;;;;;5090025;28;20190;-85
2023/07/05 00:13:29;;;;;;;13.70;6.35;;;16.90;99.90;;;;;;5090144;28;20042;-85
2023/07/05 00:15:55;;;;;;;11.73;4.93;;;16.90;99.90;;;;;;5089779;28;20517;-85
2023/07/05 00:18:21;;;;;;;11.48;6.45;;;16.90;99.90;;;;;;5089931;28;20078;-85
2023/07/05 00:20:47;;;;;;;12.10;6.30;;;16.90;99.90;;;;;;5091078;28;20119;-85
2023/07/05 00:23:12;;;;;;;13.45;7.07;;;16.90;99.90;;;;;;5090130;28;20404;-85
2023/07/05 00:25:38;;;;;;;13.50;7.00;;;16.90;99.90;;;;;;5089821;28;20040;-85
2023/07/05 00:28:03;;;;;;;12.95;6.82;;;16.90;99.90;;;;;;5073402;28;20048;-85
2023/07/05 00:30:29;;;;;;;13.63;6.63;;;16.90;99.90;;;;;;5089169;28;20042;-85
2023/07/05 00:32:55;;;;;;;11.63;4.93;;;16.90;99.90;;;;;;5073135;28;20047;-85
2023/07/05 00:35:20;;;;;;;12.52;5.85;;;16.90;99.90;;;;;;5089874;28;20260;-85
2023/07/05 00:37:46;;;;;;;11.10;6.97;;;16.80;99.90;;;;;;5073227;28;20501;-85
2023/07/05 00:40:12;;;;;;;12.27;7.32;;;16.80;99.90;;;;;;5089605;28;20028;-85
2023/07/05 00:42:38;;;;;;;12.45;5.90;;;16.90;99.90;;;;;;5090830;28;20097;-85
2023/07/05 00:45:09;;;;;;;14.82;7.32;;;16.80;99.90;;;;;;5089568;28;20101;-85
2023/07/05 00:47:37;;;;;;;14.18;7.47;;;16.80;99.90;;;;;;5089631;28;20402;-85
2023/07/05 00:50:21;;;;;;;14.77;7.68;;;16.80;99.90;;;;;;5089344;28;20036;-85
2023/07/05 00:52:47;;;;;;;15.65;8.50;;;16.80;99.90;;;;;;5072989;28;20044;-85
2023/07/05 00:55:13;;;;;;;11.52;5.45;;;16.80;99.90;;;;;;5089787;28;20048;-85
2023/07/05 00:57:42;;;;;;;13.98;5.13;;;16.80;99.90;;;;;;5089581;28;20036;-85
2023/07/05 01:00:14;;;;;;;13.48;7.28;;;16.70;99.90;;;;;;5072299;28;20482;-85
2023/07/05 01:02:43;;;;;;;14.20;7.43;;;16.80;99.90;;;;;;5090772;28;20409;-85
2023/07/05 01:05:11;;;;;;;15.32;7.75;;;16.80;99.90;;;;;;5090847;28;20161;-85
2023/07/05 01:07:37;;;;;;;14.07;7.97;;;16.70;99.90;;;;;;5072875;28;20048;-85
2023/07/05 01:10:04;;;;;;;12.63;7.05;;;16.80;99.90;;;;;;5089324;28;20047;-85
2023/07/05 01:12:42;;;;;;;14.68;7.47;;;16.80;99.90;;;;;;5089500;28;20511;-85
2023/07/05 01:15:12;;;;;;;14.70;7.18;;;16.80;99.90;;;;;;5089152;28;20043;-85
2023/07/05 01:17:52;;;;;;;14.05;6.93;;;16.70;99.90;;;;;;5090302;28;20042;-85
2023/07/05 01:20:32;;;;;;;15.15;7.25;;;16.80;99.90;;;;;;5076063;28;20062;-85
2023/07/05 01:23:04;;;;;;;13.82;7.28;;;16.70;99.90;;;;;;5076217;28;20032;-84
2023/07/05 01:26:14;;;;;;;14.30;7.90;;;16.70;99.90;;;;;;5076142;28;20413;-85
2023/07/05 01:29:02;;;;;;;11.90;5.32;;;16.70;99.90;;;;;;5076503;28;20124;-85
2023/07/05 01:31:54;;;;;;;13.57;8.18;;;16.60;99.90;;;;;;5075811;28;20055;-85
2023/07/05 01:34:42;;;;;;;20.08;9.02;;;16.60;99.90;;;;;;5092941;28;20127;-85
2023/07/05 01:37:20;;;;;;;16.15;8.55;;;16.60;99.90;;;;;;5076091;28;20059;-85
2023/07/05 01:39:45;;;;;;;15.32;8.25;;;16.60;99.90;;;;;;5092612;28;20432;-85
2023/07/05 01:42:12;;;;;;;14.23;5.80;;;16.50;99.90;;;;;;5075941;28;20024;-85
2023/07/05 01:44:37;;;;;;;14.75;8.90;;;16.40;99.90;;;;;;5092968;28;20489;-85
2023/07/05 01:47:10;;;;;;;15.50;6.65;;;16.40;99.90;;;;;;5092768;28;20047;-85
2023/07/05 01:50:03;;;;;;;15.90;9.02;;;16.40;99.90;;;;;;5092352;28;20055;-85
2023/07/05 01:52:38;;;;;;;16.58;8.85;;;16.30;99.90;;;;;;5093004;28;20109;-85
2023/07/05 01:55:13;;;;;;;13.75;6.95;;;16.30;99.90;;;;;;5076040;28;20408;-85
2023/07/05 01:57:46;;;;;;;16.23;8.73;;;16.30;99.90;;;;;;5092527;28;20039;-85
2023/07/05 02:00:15;;;;;;;12.52;6.32;;;16.30;99.90;;;;;;5092029;28;20070;-85
2023/07/05 02:03:04;;;;;;;11.82;5.63;;;16.20;99.90;;;;;;5075446;28;20047;-85
2023/07/05 02:05:31;;;;;;;14.05;10.02;;;16.10;99.90;;;;;;5075594;28;20036;-85
2023/07/05 02:07:59;;;;;;;17.83;10.00;;;16.10;99.90;;;;;;5075473;28;20043;-85
2023/07/05 02:10:26;;;;;;;16.10;10.35;;;16.20;99.90;;;;;;5075205;28;20032;-85
2023/07/05 02:12:52;;;;;;;16.10;10.23;;;16.20;99.90;;;;;;5075361;28;20071;-85
2023/07/05 02:15:19;;;;;;;16.25;10.52;;;16.10;99.90;;;;;;5092272;28;20040;-85
2023/07/05 02:17:44;;;;;;;16.25;10.52;;;16.10;99.90;;;;;;5092348;28;20047;-85
2023/07/05 02:20:10;;;;;;;17.88;11.00;;;16.10;99.90;;;;;;5091730;28;20040;-85
2023/07/05 02:22:36;;;;;;;15.48;10.18;;;16.10;99.90;;;;;;5091818;28;20075;-85
2023/07/05 02:25:02;;;;;;;14.05;6.10;;;16.10;99.90;;;;;;5075048;28;20404;-85
2023/07/05 02:27:28;;;;;;;13.48;6.75;;;16.00;99.90;;;;;;5091874;28;20036;-85
2023/07/05 02:29:55;;;;;;;17.60;10.68;;;15.90;99.90;;;;;;5074619;28;20065;-85
2023/07/05 02:32:21;;;;;;;15.63;9.98;;;16.00;99.90;;;;;;5074799;28;20051;-85
2023/07/05 02:34:47;;;;;;;17.13;11.40;;;16.00;99.90;;;;;;5091910;28;20109;-85
2023/07/05 02:37:14;;;;;;;14.45;10.82;;;16.00;99.90;;;;;;5092965;28;20402;-85
2023/07/05 02:39:40;;;;;;;15.70;11.13;;;16.00;99.90;;;;;;5074591;28;20035;-85
2023/07/05 02:42:07;;;;;;;15.57;10.93;;;16.10;99.90;;;;;;5075169;28;20554;-85
2023/07/05 02:44:32;;;;;;;13.75;6.80;;;16.00;99.90;;;;;;5091673;28;20036;-85
2023/07/05 02:46:58;;;;;;;16.65;11.20;;;15.90;99.90;;;;;;5074822;28;20096;-85
2023/07/05 02:49:23;;;;;;;12.10;6.95;;;15.90;99.90;;;;;;5091378;28;20032;-85
2023/07/05 02:51:49;;;;;;;19.48;11.63;;;15.90;99.90;;;;;;5091229;28;20083;-85
2023/07/05 02:54:15;;;;;;;18.52;11.68;;;15.90;99.90;;;;;;5091356;28;20090;-85
2023/07/05 02:56:41;;;;;;;15.15;7.05;;;16.00;99.90;;;;;;5091036;28;20075;-85
2023/07/05 02:59:06;;;;;;;16.45;7.38;;;15.90;99.90;;;;;;5074812;28;20075;-85
2023/07/05 03:01:32;;;;;;;16.80;11.18;;;15.80;99.90;;;;;;5092330;28;20034;-85
2023/07/05 03:03:57;;;;;;;15.75;11.43;;;15.90;99.90;;;;;;5091172;28;20553;-85
2023/07/05 03:06:23;;;;;;;14.32;11.52;;;15.90;99.90;;;;;;5091343;28;20089;-85
2023/07/05 03:08:48;;;;;;;15.85;7.85;;;16.00;99.90;;;;;;5074078;28;20520;-85
2023/07/05 03:11:14;;;;;;;15.48;11.35;;;15.90;99.90;;;;;;5090606;28;20091;-85
2023/07/05 03:13:40;;;;;;;15.10;11.38;;;15.90;99.90;;;;;;5090974;28;20040;-85
2023/07/05 03:16:05;;;;;;;12.98;7.55;;;15.90;99.90;;;;;;5091059;28;20036;-84
2023/07/05 03:18:32;;;;;;;13.15;7.18;;;15.80;99.90;;;;;;5074052;28;20051;-84
2023/07/05 03:20:58;;;;;;;15.57;11.30;;;15.80;99.90;;;;;;5090678;28;20036;-85
2023/07/05 03:23:23;;;;;;;17.67;11.90;;;15.90;99.90;;;;;;5073684;28;20036;-84
2023/07/05 03:26:02;;;;;;;17.00;11.65;;;15.90;99.90;;;;;;5090851;28;20130;-84
2023/07/05 03:28:30;;;;;;;14.15;7.13;;;15.90;99.90;;;;;;5091044;28;20040;-84
2023/07/05 03:31:00;;;;;;;17.33;11.10;;;15.90;99.90;;;;;;5091768;28;20513;-85
2023/07/05 03:33:26;;;;;;;15.35;10.65;;;15.90;99.90;;;;;;5090823;28;20039;-85
2023/07/05 03:36:00;;;;;;;12.55;7.00;;;16.00;99.90;;;;;;5090500;28;20036;-85
2023/07/05 03:38:27;;;;;;;13.20;7.32;;;15.90;99.90;;;;;;5091879;28;20521;-85
2023/07/05 03:41:03;;;;;;;13.25;7.90;;;15.90;99.90;;;;;;5089488;28;20393;-85
2023/07/05 03:43:32;;;;;;;13.18;10.80;;;15.90;99.90;;;;;;5092006;28;20181;-85
2023/07/05 03:46:01;;;;;;;18.50;11.93;;;15.90;99.90;;;;;;5090508;28;20039;-85
2023/07/05 03:48:30;;;;;;;13.45;7.70;;;16.00;99.90;;;;;;5091337;28;20119;-85
2023/07/05 03:50:58;;;;;;;13.43;7.18;;;16.00;99.90;;;;;;5090152;28;20036;-85
2023/07/05 03:53:24;;;;;;;15.07;11.77;;;15.90;99.90;;;;;;5090316;28;20055;-85
2023/07/05 03:55:51;;;;;;;16.10;11.95;;;16.00;99.90;;;;;;5090232;28;20054;-85
2023/07/05 03:58:17;;;;;;;16.20;11.80;;;16.00;99.90;;;;;;5090543;28;20449;-85
2023/07/05 04:00:43;;;;;;;13.23;7.35;;;16.00;99.90;;;;;;5089942;28;20036;-86
2023/07/05 04:03:08;;;;;;;10.35;6.30;;;16.00;99.90;;;;;;5090385;28;20623;-85
2023/07/05 04:05:34;;;;;;;11.18;6.25;;;16.00;99.90;;;;;;5090189;28;20505;-84
2023/07/05 04:08:00;;;;;;;14.85;9.73;;;16.00;99.90;;;;;;5073226;28;20032;-85
2023/07/05 04:10:26;;;;;;;12.75;8.57;;;16.10;99.90;;;;;;5072991;28;20043;-85
2023/07/05 04:12:51;;;;;;;11.48;8.65;;;16.20;99.90;;;;;;5089916;28;20417;-85
2023/07/05 04:15:17;;;;;;;8.80;3.70;;;16.30;99.90;;;;;;5090074;28;20043;-85
2023/07/05 04:17:43;;;;;;;8.90;5.93;;;16.30;99.90;;;;;;5073133;28;20489;-84
2023/07/05 04:20:09;;;;;;;9.60;5.80;;;16.30;99.90;;;;;;5089543;28;20032;-84
2023/07/05 04:22:35;;;;;;;10.93;5.60;;;16.40;99.90;;;;;;5090047;28;20081;-84
2023/07/05 04:25:01;;;;;;;9.18;3.53;;;16.40;99.90;;;;;;5073295;28;20040;-85
2023/07/05 04:27:27;;;;;;;9.20;5.15;;;16.40;99.90;;;;;;5073074;28;20047;-85
2023/07/05 04:29:53;;;;;;;9.30;4.85;;;16.40;99.90;;;;;;5089476;28;20039;-85
2023/07/05 04:32:19;;;;;;;9.57;5.03;;;16.50;99.90;;;;;;5072898;28;20083;-85
2023/07/05 04:34:44;;;;;;;6.80;2.75;;;16.50;99.90;;;;;;5090141;28;20040;-85
2023/07/05 04:37:10;;;;;;;8.43;4.68;;;16.40;99.90;;;;;;5089755;28;20047;-85
2023/07/05 04:39:35;;;;;;;8.93;4.18;;;16.50;99.90;;;;;;5105571;28;20075;-84
2023/07/05 04:42:01;;;;;;;9.25;4.40;;;16.50;99.90;;;;;;5110058;28;20036;-86
2023/07/05 04:44:27;;;;;;;8.43;4.03;;;16.50;99.90;;;;;;5110206;28;20040;-84
2023/07/05 04:46:52;;;;;;;8.65;2.83;;;16.40;99.90;;;;;;5093093;28;20031;-85
2023/07/05 04:49:18;;;;;;;7.00;2.72;;;16.30;99.90;;;;;;5110320;28;20081;-85
2023/07/05 04:51:44;;;;;;;6.22;2.92;;;16.20;99.90;;;;;;5110897;28;20036;-84
2023/07/05 04:54:09;;;;;;;7.60;3.80;;;16.10;99.90;;;;;;5114364;28;20492;-85
2023/07/05 04:56:35;;;;;;;8.02;3.65;;;15.90;99.90;;;;;;5097134;28;20488;-85
2023/07/05 04:59:01;;;;;;;10.50;2.53;;;15.80;99.90;;;;;;5114274;28;20496;-84
2023/07/05 05:01:26;;;;;;;8.75;4.30;;;15.50;99.90;;;;;;5113655;28;20126;-85
2023/07/05 05:03:52;;;;;;;6.95;2.65;;;15.50;99.90;;;;;;5113862;28;20489;-85
2023/07/05 05:06:18;;;;;;;9.52;2.83;;;15.30;99.90;;;;;;5097326;28;20071;-85
2023/07/05 05:08:43;;;;;;;10.00;4.75;;;15.30;99.90;;;;;;5113714;28;20571;-85
2023/07/05 05:11:09;;;;;;;8.05;3.38;;;15.20;99.90;;;;;;5114016;28;20086;-85
2023/07/05 05:13:36;;;;;;;8.40;5.13;;;15.20;99.90;;;;;;5096449;28;20047;-85
2023/07/05 05:16:02;;;;;;;8.35;4.25;;;15.20;99.90;;;;;;5096773;28;20062;-85
2023/07/05 05:18:33;;;;;;;9.65;2.78;;;15.20;99.90;;;;;;5097033;28;20118;-85
2023/07/05 05:20:59;;;;;;;6.25;2.22;;;15.20;99.90;;;;;;5113416;28;20544;-85
2023/07/05 05:23:25;;;;;;;6.25;2.35;;;15.10;99.90;;;;;;5113733;28;20492;-85
2023/07/05 05:25:51;;;;;;;6.25;2.33;;;15.10;99.90;;;;;;5113731;28;20047;-85
2023/07/05 05:28:17;;;;;;;6.35;2.80;;;15.10;99.90;;;;;;5096520;28;20530;-85
2023/07/05 05:30:44;;;;;;;8.85;4.10;;;15.00;99.90;;;;;;5113302;28;20039;-84
2023/07/05 05:33:11;;;;;;;9.48;4.30;;;15.10;99.90;;;;;;5096213;28;20088;-85
2023/07/05 05:35:36;;;;;;;7.50;3.00;;;15.20;99.90;;;;;;5113029;28;20606;-85
2023/07/05 05:38:03;;;;;;;8.57;4.15;;;15.10;99.90;;;;;;5113441;28;20035;-85
2023/07/05 05:40:29;;;;;;;8.15;4.03;;;15.20;99.90;;;;;;5113271;27;20054;-85
2023/07/05 05:42:54;;;;;;;8.90;3.20;;;15.20;99.90;;;;;;5112816;28;20508;-85
2023/07/05 05:45:20;;;;;;;9.55;3.85;;;15.20;99.90;;;;;;5096108;28;20036;-85
2023/07/05 05:47:45;;;;;;;7.95;2.80;;;15.20;99.90;;;;;;5113136;28;20035;-85
2023/07/05 05:50:11;;;;;;;5.88;1.90;;;15.20;99.90;;;;;;5095876;28;20036;-85
2023/07/05 05:52:37;;;;;;;6.63;2.28;;;15.20;99.90;;;;;;5112951;28;20075;-85
2023/07/05 05:55:03;;;;;;;9.23;4.40;;;15.20;99.90;;;;;;5112807;28;20074;-85
2023/07/05 05:57:29;;;;;;;10.60;4.25;;;15.20;99.90;;;;;;5096095;28;20431;-85
2023/07/05 05:59:54;;;;;;;7.43;2.42;;;15.20;99.90;;;;;;5095316;28;20485;-85
2023/07/05 06:02:20;;;;;;;8.07;2.03;;;15.20;99.90;;;;;;5112955;28;20126;-85
2023/07/05 06:04:46;;;;;;;8.02;4.30;;;15.20;99.90;;;;;;5095354;28;20488;-85
2023/07/05 06:07:11;;;;;;;9.68;4.38;;;15.20;99.90;;;;;;5112810;28;20493;-85
2023/07/05 06:09:38;;;;;;;9.63;2.97;;;15.20;99.90;;;;;;5095366;28;20153;-85
2023/07/05 06:12:04;;;;;;;9.38;4.47;;;15.20;99.90;;;;;;5095378;28;20024;-85
2023/07/05 06:14:30;;;;;;;8.13;4.25;;;15.20;99.90;;;;;;5112233;28;20039;-85
2023/07/05 06:16:56;;;;;;;10.10;4.70;;;15.20;99.90;;;;;;5095535;28;20041;-85
2023/07/05 06:19:21;;;;;;;6.88;2.40;;;15.20;99.90;;;;;;5095583;28;20035;-85
2023/07/05 06:21:47;;;;;;;10.02;3.33;;;15.20;99.90;;;;;;5112091;28;20054;-84
2023/07/05 06:24:12;;;;;;;5.47;1.67;;;15.20;99.90;;;;;;5095475;28;20397;-85
2023/07/05 06:26:38;;;;;;;9.80;4.53;;;15.30;99.90;;;;;;5095491;28;20101;-85
2023/07/05 06:29:03;;;;;;;9.13;4.43;;;15.40;99.90;;;;;;5112375;28;20118;-85
2023/07/05 06:31:33;;;;;;;7.43;3.20;;;15.50;99.90;;;;;;5111923;28;20071;-86
2023/07/05 06:33:59;;;;;;;9.63;4.55;;;15.50;99.90;;;;;;5095006;28;20039;-85
2023/07/05 06:36:25;;;;;;;9.27;4.80;;;15.50;99.90;;;;;;5112161;28;20042;-85
2023/07/05 06:38:51;;;;;;;5.57;2.15;;;15.60;99.90;;;;;;5112448;28;20035;-85
2023/07/05 06:41:17;;;;;;;9.93;4.85;;;15.60;99.90;;;;;;5106662;28;20035;-85
2023/07/05 06:43:43;;;;;;;8.52;2.67;;;15.60;99.90;;;;;;5094036;28;20040;-84
2023/07/05 06:46:09;;;;;;;9.98;4.47;;;15.50;99.90;;;;;;5074703;28;20058;-85
2023/07/05 06:48:34;;;;;;;7.70;2.25;;;15.50;99.90;;;;;;5075949;28;20062;-85
2023/07/05 06:51:00;;;;;;;9.10;3.05;;;15.50;99.90;;;;;;5098386;28;20048;-85
2023/07/05 06:53:26;;;;;;;10.00;4.18;;;15.50;99.90;;;;;;5091383;28;20043;-85
2023/07/05 06:55:52;;;;;;;8.27;4.18;;;15.50;99.90;;;;;;5091298;28;20035;-85
2023/07/05 06:58:21;;;;;;;9.18;2.65;;;15.60;99.90;;;;;;5091653;28;20036;-85
2023/07/05 07:00:48;;;;;;;10.95;4.28;;;15.50;99.90;;;;;;5091057;28;20044;-85
2023/07/05 07:03:14;;;;;;;10.70;4.07;;;15.50;99.90;;;;;;5091166;28;20551;-85
2023/07/05 07:05:40;;;;;;;9.23;3.95;;;15.50;99.90;;;;;;5091041;28;20031;-85
2023/07/05 07:08:05;;;;;;;11.60;2.58;;;15.50;99.90;;;;;;5091201;28;20062;-85
2023/07/05 07:10:35;;;;;;;6.18;2.25;;;15.40;99.90;;;;;;5073631;28;20036;-85
2023/07/05 07:13:02;;;;;;;9.32;2.63;;;15.30;99.90;;;;;;5091286;28;20040;-85
2023/07/05 07:15:28;;;;;;;7.93;3.80;;;15.30;99.90;;;;;;5090098;28;20043;-85
2023/07/05 07:17:53;;;;;;;8.43;4.18;;;15.30;99.90;;;;;;5074141;28;20401;-84
2023/07/05 07:20:19;;;;;;;9.40;3.92;;;15.30;99.90;;;;;;5090301;28;20066;-85
2023/07/05 07:22:45;;;;;;;7.30;1.98;;;15.40;99.90;;;;;;5092020;28;20062;-85
2023/07/05 07:25:10;;;;;;;9.30;4.20;;;15.30;99.90;;;;;;5090821;28;20536;-85
2023/07/05 07:27:36;;;;;;;9.68;4.28;;;15.40;99.90;;;;;;5090752;28;20398;-85
2023/07/05 07:30:02;;;;;;;6.95;2.17;;;15.40;99.90;;;;;;5073868;28;20501;-85
2023/07/05 07:32:28;;;;;;;9.65;4.00;;;15.50;99.90;;;;;;5090998;28;20448;-85
2023/07/05 07:34:54;;;;;;;7.38;2.30;;;15.60;99.90;;;;;;5090375;28;20065;-85
2023/07/05 07:37:20;;;;;;;6.78;1.92;;;15.60;99.90;;;;;;5072697;28;20071;-85
2023/07/05 07:39:46;;;;;;;5.72;1.70;;;15.40;99.90;;;;;;5089655;28;20043;-85
2023/07/05 07:42:12;;;;;;;7.43;2.25;;;15.30;99.90;;;;;;5089810;28;20505;-85
2023/07/05 07:44:37;;;;;;;7.85;2.05;;;15.30;99.90;;;;;;5089619;28;20082;-85
2023/07/05 07:47:04;;;;;;;7.90;3.30;;;15.20;99.90;;;;;;5073269;28;20497;-84
2023/07/05 07:49:29;;;;;;;10.40;3.67;;;15.20;99.90;;;;;;5090472;28;20149;-85
2023/07/05 07:51:56;;;;;;;7.28;3.13;;;15.00;99.90;;;;;;5075577;28;20123;-86
2023/07/05 07:54:26;;;;;;;5.43;1.83;;;14.90;99.90;;;;;;5098259;28;20047;-85
2023/07/05 07:56:53;;;;;;;5.45;1.30;;;14.60;99.90;;;;;;5098954;28;20035;-84
2023/07/05 07:59:19;;;;;;;7.55;2.70;;;14.40;99.90;;;;;;5073418;28;20520;-84
2023/07/05 08:01:45;;;;;;;4.22;1.27;;;14.40;99.90;;;;;;5073319;28;20028;-83
2023/07/05 08:04:13;;;;;;;3.33;1.45;;;14.40;99.90;;;;;;5090501;28;20185;-84
2023/07/05 08:06:44;;;;;;;5.80;2.20;;;14.30;99.90;;;;;;5090284;28;20405;-84
2023/07/05 08:09:13;;;;;;;4.40;1.15;;;14.30;99.90;;;;;;5073782;28;20044;-84
2023/07/05 08:11:39;;;;;;;1.00;0.60;;;14.10;99.90;;;;;;5090127;28;20062;-84
2023/07/05 08:14:06;;;;;;;5.10;1.42;;;14.00;99.90;;;;;;5073095;28;20560;-84
2023/07/05 08:16:32;;;;;;;1.77;0.50;;;13.90;99.90;;;;;;5073364;28;20123;-84
2023/07/05 08:18:57;;;;;;;3.10;0.70;;;13.80;99.90;;;;;;5090216;28;20036;-84
2023/07/05 08:21:23;;;;;;;4.40;1.33;;;13.80;99.90;;;;;;5089741;28;20489;-84
2023/07/05 08:23:49;;;;;;;2.40;0.70;;;13.70;99.90;;;;;;5090151;28;20042;-83
2023/07/05 08:26:15;;;;;;;2.20;0.80;;;13.60;99.90;;;;;;5072841;28;20126;-84
2023/07/05 08:28:42;;;;;;;3.33;1.42;;;13.50;99.90;;;;;;5073310;28;20046;-84
2023/07/05 08:31:08;;;;;;;6.72;1.77;;;13.50;99.90;;;;;;5089886;28;20138;-83
2023/07/05 08:33:36;;;;;;;3.10;1.10;;;13.40;99.90;;;;;;5091165;28;20043;-83
2023/07/05 08:36:17;;;;;;;4.60;1.60;;;13.40;99.90;;;;;;5078136;28;20035;-83
2023/07/05 08:38:51;;;;;;;5.63;0.98;;;13.40;99.90;;;;;;5090387;28;20101;-83
2023/07/05 08:41:23;;;;;;;3.70;0.98;;;13.40;99.90;;;;;;5072641;28;20122;-83
2023/07/05 08:44:00;;;;;;;1.38;0.55;;;13.40;99.90;;;;;;5090014;28;20094;-83
2023/07/05 08:46:26;;;;;;;1.55;0.73;;;13.40;99.90;;;;;;5072804;28;20048;-83
2023/07/05 08:49:06;;;;;;;2.17;0.75;;;13.30;99.90;;;;;;5089855;28;20036;-83
2023/07/05 08:51:33;;;;;;;5.85;1.70;;;13.30;99.90;;;;;;5072945;28;20048;-83
2023/07/05 08:54:01;;;;;;;5.18;1.65;;;13.40;99.90;;;;;;5072734;28;20142;-83
2023/07/05 08:56:39;;;;;;;1.67;0.70;;;13.40;99.90;;;;;;5072094;28;20546;-83
2023/07/05 08:59:34;;;;;;;2.30;0.75;;;13.40;99.90;;;;;;5089998;28;20036;-83
2023/07/05 09:02:00;;;;;;;3.35;1.20;;;13.40;99.90;;;;;;5089626;28;20071;-83
2023/07/05 09:04:32;;;;;;;1.98;0.82;;;13.40;99.90;;;;;;5072921;28;20067;-83
2023/07/05 09:07:20;;;;;;;0.98;0.47;;;13.30;99.90;;;;;;5072841;28;20044;-83
2023/07/05 09:10:04;;;;;;;2.15;0.80;;;13.20;99.90;;;;;;5089420;28;20126;-83
2023/07/05 09:12:50;;;;;;;2.40;0.75;;;13.20;99.90;;;;;;5089704;28;20036;-82
2023/07/05 09:15:25;;;;;;;3.80;1.20;;;13.10;99.90;;;;;;5072494;28;20036;-83
2023/07/05 09:18:04;;;;;;;2.45;0.68;;;13.00;99.90;;;;;;5072860;28;20036;-83
2023/07/05 09:20:29;;;;;;;1.88;1.02;;;12.90;99.90;;;;;;5072660;28;20123;-83
2023/07/05 09:22:57;;;;;;;1.58;0.70;;;12.80;99.90;;;;;;5089402;28;20174;-83
2023/07/05 09:25:25;;;;;;;2.35;0.93;;;12.70;99.90;;;;;;5073028;28;20048;-84
2023/07/05 09:28:29;;;;;;;2.75;0.73;;;12.70;99.90;;;;;;5089577;28;20525;-84
2023/07/05 09:30:58;;;;;;;4.10;1.05;;;12.60;99.90;;;;;;5089439;28;20050;-83
2023/07/05 09:33:34;;;;;;;2.22;0.90;;;12.50;99.90;;;;;;5089344;28;20043;-84
2023/07/05 09:36:10;;;;;;;5.13;1.08;;;12.50;99.90;;;;;;5089357;28;20044;-85
2023/07/05 09:38:43;;;;;;;4.43;1.40;;;12.50;99.90;;;;;;5090008;28;20509;-85
2023/07/05 09:41:17;;;;;;;3.83;0.70;;;12.60;99.90;;;;;;5093042;28;20532;-85
2023/07/05 09:43:43;;;;;;;5.43;1.20;;;12.60;99.90;;;;;;5093037;28;20425;-85
2023/07/05 09:46:26;;;;;;;2.22;1.17;;;12.70;99.90;;;;;;5093551;28;20043;-84
2023/07/05 09:48:54;;;;;;;3.95;0.90;;;12.70;99.90;;;;;;5103969;28;20089;-84
2023/07/05 09:51:21;;;;;;;9.35;2.30;;;12.80;99.90;;;;;;5075657;28;20108;-84
2023/07/05 09:53:49;;;;;;;2.38;1.00;;;12.90;99.90;;;;;;5076038;28;20043;-86
2023/07/05 09:56:38;;;;;;;3.40;1.10;;;12.90;99.90;;;;;;5092757;28;20177;-86
2023/07/05 09:59:13;;;;;;;5.05;1.35;;;12.90;99.90;;;;;;5092731;28;20043;-84
2023/07/05 10:01:42;;;;;;;3.70;1.10;;;13.00;99.90;;;;;;5075429;28;20524;-84
2023/07/05 10:04:08;;;;;;;4.35;1.42;;;13.00;99.90;;;;;;5075584;28;20036;-84
2023/07/05 10:06:38;;;;;;;9.35;2.83;;;13.10;99.90;;;;;;5092361;28;20382;-84
2023/07/05 10:09:19;;;;;;;4.35;1.20;;;13.10;99.90;;;;;;5092872;28;20075;-84
2023/07/05 10:12:09;;;;;;;2.53;0.85;;;13.10;99.90;;;;;;5091821;28;20123;-84
2023/07/05 10:14:35;;;;;;;3.13;0.93;;;13.10;99.90;;;;;;5092293;28;20161;-84
2023/07/05 10:17:09;;;;;;;5.45;1.27;;;13.10;99.90;;;;;;5075479;28;20115;-83
2023/07/05 10:19:48;;;;;;;2.45;0.90;;;13.10;99.90;;;;;;5075191;28;20040;-83
2023/07/05 10:22:15;;;;;;;4.32;0.90;;;12.90;99.90;;;;;;5092384;28;20040;-84
2023/07/05 10:24:49;;;;;;;4.88;1.42;;;12.80;99.90;;;;;;5092521;28;20036;-86
2023/07/05 10:27:36;;;;;;;7.22;1.13;;;12.80;99.90;;;;;;5092394;28;20436;-86
2023/07/05 10:30:15;;;;;;;11.05;3.17;;;12.80;99.90;;;;;;5075515;28;20408;-87
2023/07/05 10:32:49;;;;;;;4.50;1.08;;;12.80;99.90;;;;;;5075009;28;20075;-86
2023/07/05 10:35:28;;;;;;;3.63;0.95;;;12.80;99.90;;;;;;5092355;28;20040;-86
2023/07/05 10:37:55;;;;;;;2.67;0.63;;;12.80;99.90;;;;;;5075577;28;20036;-87
2023/07/05 10:40:22;;;;;;;3.30;1.10;;;12.80;99.90;;;;;;5093597;28;20058;-87
2023/07/05 10:43:11;;;;;;;7.50;1.10;;;12.80;99.90;;;;;;5092254;28;20036;-86
2023/07/05 10:45:36;;;;;;;2.35;0.80;;;12.80;99.90;;;;;;5092438;28;20048;-86
2023/07/05 10:48:02;;;;;;;3.67;1.05;;;12.90;99.90;;;;;;5075424;28;20073;-86
2023/07/05 10:50:37;;;;;;;3.25;1.15;;;12.90;99.90;;;;;;5091828;28;20126;-87
2023/07/05 10:53:15;;;;;;;9.25;1.42;;;12.80;99.90;;;;;;5072534;28;20036;-86
2023/07/05 10:55:47;;;;;;;4.22;1.05;;;12.80;99.90;;;;;;5088869;28;20043;-87
2023/07/05 10:58:18;;;;;;;4.85;1.38;;;12.70;99.90;;;;;;5091784;28;20527;-86
2023/07/05 11:01:01;;;;;;;4.55;1.33;;;12.70;99.90;;;;;;5091876;28;20044;-85
2023/07/05 11:03:45;;;;;;;3.92;1.42;;;12.60;99.90;;;;;;5075221;28;20039;-86
2023/07/05 11:06:12;;;;;;;3.88;1.10;;;12.60;99.90;;;;;;5091996;28;20040;-86
2023/07/05 11:08:39;;;;;;;4.10;1.30;;;12.50;99.90;;;;;;5093054;28;20137;-86
2023/07/05 11:11:11;;;;;;;2.72;0.95;;;12.50;99.90;;;;;;5091598;28;20538;-85
2023/07/05 11:13:37;;;;;;;5.25;1.13;;;12.50;99.90;;;;;;5091641;28;20047;-86
2023/07/05 11:16:03;;;;;;;10.65;1.52;;;12.60;99.90;;;;;;5091845;28;20042;-85
2023/07/05 11:18:29;;;;;;;5.88;1.60;;;12.60;99.90;;;;;;5091462;28;20040;-86
2023/07/05 11:20:56;;;;;;;5.35;1.55;;;12.60;99.90;;;;;;5091159;28;20032;-85
2023/07/05 11:23:40;;;;;;;6.55;1.70;;;12.60;99.90;;;;;;5074664;28;20047;-85
2023/07/05 11:26:06;;;;;;;3.63;1.27;;;12.60;99.90;;;;;;5073033;28;20466;-85
2023/07/05 11:28:37;;;;;;;5.82;1.33;;;12.60;99.90;;;;;;5074551;28;20040;-86
2023/07/05 11:31:05;;;;;;;8.20;2.03;;;12.70;99.90;;;;;;5074394;28;20044;-87
2023/07/05 11:33:31;;;;;;;4.97;1.50;;;12.70;99.90;;;;;;5091663;28;20153;-86
2023/07/05 11:36:00;;;;;;;13.10;4.10;;;12.70;99.90;;;;;;5091487;28;20525;-87
2023/07/05 11:38:35;;;;;;;9.07;1.85;;;12.80;99.90;;;;;;5091897;28;20032;-87
2023/07/05 11:41:04;;;;;;;3.95;1.13;;;12.80;99.90;;;;;;5074314;28;20459;-87
2023/07/05 11:43:39;;;;;;;5.55;1.50;;;12.70;99.90;;;;;;5091381;28;20040;-87
2023/07/05 11:46:33;;;;;;;5.85;1.35;;;12.70;99.90;;;;;;5074075;28;20073;-87
2023/07/05 11:49:19;;;;;;;5.03;1.10;;;12.70;99.90;;;;;;5074505;28;20044;-87
2023/07/05 11:51:45;;;;;;;4.95;1.40;;;12.70;99.90;;;;;;5091293;28;20576;-87
2023/07/05 11:54:13;;;;;;;3.75;1.25;;;12.80;99.90;;;;;;5074127;28;20048;-87
2023/07/05 11:56:42;;;;;;;5.13;1.15;;;12.80;99.90;;;;;;5092351;28;20085;-86
2023/07/05 11:59:11;;;;;;;4.32;1.33;;;12.90;99.90;;;;;;5092299;28;20089;-87
2023/07/05 12:01:39;;;;;;;5.07;1.20;;;12.90;99.90;;;;;;5091458;28;20051;-88
2023/07/05 12:04:10;;;;;;;4.10;1.10;;;12.90;99.90;;;;;;5090809;28;20551;-87
2023/07/05 12:06:41;;;;;;;3.45;1.08;;;12.90;99.90;;;;;;5092378;28;20044;-87
2023/07/05 12:09:31;;;;;;;6.15;1.27;;;12.90;99.90;;;;;;5091035;28;20093;-87
2023/07/05 12:11:57;;;;;;;7.68;1.30;;;13.00;99.90;;;;;;5090801;28;20139;-87
2023/07/05 12:14:22;;;;;;;9.95;2.80;;;13.00;99.90;;;;;;5073718;28;20071;-87
2023/07/05 12:16:49;;;;;;;10.00;2.80;;;13.00;99.90;;;;;;5090938;28;20127;-87
2023/07/05 12:19:23;;;;;;;4.00;0.80;;;13.10;99.90;;;;;;5090824;28;20128;-88
2023/07/05 12:21:55;;;;;;;2.47;0.80;;;13.00;99.90;;;;;;5090480;28;20048;-87
2023/07/05 12:24:21;;;;;;;5.15;1.13;;;13.00;99.90;;;;;;5091807;28;20387;-87
2023/07/05 12:26:47;;;;;;;6.38;1.35;;;13.00;99.90;;;;;;5090468;28;20044;-87
2023/07/05 12:29:28;;;;;;;5.55;1.67;;;13.00;99.90;;;;;;5090285;28;20028;-87
2023/07/05 12:32:22;;;;;;;4.57;1.40;;;13.10;99.90;;;;;;5090638;28;20043;-86
2023/07/05 12:35:12;;;;;;;6.35;1.55;;;13.20;99.90;;;;;;5084591;28;20108;-87
2023/07/05 12:37:37;;;;;;;5.32;1.58;;;13.30;99.90;;;;;;5089063;28;20410;-87
2023/07/05 12:40:13;;;;;;;4.72;1.58;;;13.40;99.90;;;;;;5098878;28;20482;-87
2023/07/05 12:42:46;;;;;;;5.18;1.60;;;13.50;99.90;;;;;;5076684;28;20063;-86
2023/07/05 12:45:21;;;;;;;15.63;4.57;;;13.50;99.90;;;;;;5089953;28;20043;-86
2023/07/05 12:47:47;;;;;;;6.43;1.70;;;13.60;99.90;;;;;;5089948;28;20047;-86
2023/07/05 12:50:19;;;;;;;3.58;0.98;;;13.60;99.90;;;;;;5090967;28;20036;-86
2023/07/05 12:52:56;;;;;;;6.00;1.50;;;13.60;99.90;;;;;;5095368;28;20062;-85
2023/07/05 12:55:26;;;;;;;10.32;1.90;;;13.70;99.90;;;;;;5096907;28;20298;-86